Time;durP1;ratioP1;P1;durP2;ratioP2;P2;SDS_P1;SDS_P2;PMS_P1;PMS_P2;Temp;Humidity;BMP_temperature;BMP_pressure;BME280_temperature;BME280_humidity;BME280_pressure;Samples;Min_cycle;Max_cycle;Signal;HPM_P1;HPM_P2
2022/03/15 00:02:01;;;;;;;123.50;112.45;;;;;;;13.56;63.60;99636.91;4918212;29;20043;-50
2022/03/15 00:04:27;;;;;;;22.05;19.77;;;;;;;13.48;63.66;99639.72;4916928;29;20494;-49
2022/03/15 00:06:53;;;;;;;20.02;18.15;;;;;;;13.34;63.25;99628.28;4916853;29;20028;-50
2022/03/15 00:09:19;;;;;;;11.45;8.80;;;;;;;13.23;64.12;99637.53;4918140;29;20111;-50
2022/03/15 00:11:45;;;;;;;7.20;5.88;;;;;;;13.22;63.94;99645.63;4918041;29;20091;-49
2022/03/15 00:14:14;;;;;;;12.70;11.40;;;;;;;13.25;63.80;99647.88;4916770;29;20032;-50
2022/03/15 00:16:41;;;;;;;6.28;5.38;;;;;;;13.27;62.78;99645.88;4917730;29;20087;-50
2022/03/15 00:19:07;;;;;;;124.00;94.55;;;;;;;13.17;62.95;99664.66;4917926;29;20439;-50
2022/03/15 00:21:33;;;;;;;17.13;11.15;;;;;;;13.10;63.31;99676.97;4917877;29;20025;-50
2022/03/15 00:23:59;;;;;;;6.45;5.53;;;;;;;13.04;63.29;99685.66;4916542;29;20039;-49
2022/03/15 00:26:28;;;;;;;10.70;6.22;;;;;;;13.00;63.25;99682.59;4917846;29;20491;-50
2022/03/15 00:28:53;;;;;;;7.22;4.57;;;;;;;13.02;63.30;99674.47;4917756;29;20024;-49
2022/03/15 00:31:19;;;;;;;16.55;6.97;;;;;;;13.08;63.63;99666.66;4916409;29;20031;-49
2022/03/15 00:33:45;;;;;;;13.10;7.68;;;;;;;13.40;63.97;99669.72;4917708;29;20084;-49
2022/03/15 00:36:11;;;;;;;13.05;7.00;;;;;;;13.79;63.07;99663.81;4917648;29;20490;-49
2022/03/15 00:38:41;;;;;;;13.02;7.60;;;;;;;14.09;62.06;99663.50;4917507;29;20016;-50
2022/03/15 00:41:08;;;;;;;16.85;14.02;;;;;;;14.22;61.07;99664.56;4917083;29;20032;-50
2022/03/15 00:43:34;;;;;;;10.80;6.57;;;;;;;14.27;60.59;99675.34;4916255;29;20502;-49
2022/03/15 00:46:00;;;;;;;20.70;14.60;;;;;;;14.42;60.54;99669.88;4917460;29;20088;-50
2022/03/15 00:48:26;;;;;;;12.90;9.63;;;;;;;14.46;59.20;99658.69;4916119;29;20123;-51
2022/03/15 00:50:52;;;;;;;7.28;6.57;;;;;;;14.45;58.88;99665.00;4916077;29;20321;-49
2022/03/15 00:53:18;;;;;;;9.20;7.25;;;;;;;14.29;58.85;99657.47;4917405;29;20044;-50
2022/03/15 00:55:44;;;;;;;7.38;6.40;;;;;;;14.04;59.41;99649.28;4917238;29;20028;-50
2022/03/15 00:58:11;;;;;;;10.50;6.00;;;;;;;13.83;60.13;99666.88;4915910;29;20529;-49
2022/03/15 01:00:36;;;;;;;10.52;5.38;;;;;;;13.77;60.72;99659.75;4917204;29;20060;-50
2022/03/15 01:03:03;;;;;;;7.30;5.70;;;;;;;13.89;60.53;99667.91;4915895;29;20068;-50
2022/03/15 01:05:29;;;;;;;21.92;13.10;;;;;;;14.03;60.19;99671.41;4915813;29;20494;-50
2022/03/15 01:07:55;;;;;;;14.18;8.00;;;;;;;14.12;59.55;99678.94;4915772;29;20024;-50
2022/03/15 01:10:22;;;;;;;9.60;6.40;;;;;;;14.12;59.37;99671.00;4917030;29;20076;-50
2022/03/15 01:12:48;;;;;;;8.73;5.80;;;;;;;14.07;60.25;99670.00;4915657;29;20110;-49
2022/03/15 01:15:14;;;;;;;8.65;5.85;;;;;;;14.17;60.31;99673.88;4917226;29;20120;-50
2022/03/15 01:17:39;;;;;;;9.18;5.18;;;;;;;14.29;59.57;99674.13;4916634;29;20052;-49
2022/03/15 01:20:08;;;;;;;8.00;6.40;;;;;;;14.43;59.41;99682.03;4916795;29;20062;-49
2022/03/15 01:22:34;;;;;;;10.80;8.73;;;;;;;14.56;58.84;99677.63;4915474;29;20056;-50
2022/03/15 01:24:59;;;;;;;9.40;6.63;;;;;;;14.62;58.44;99677.84;4915504;29;20103;-49
2022/03/15 01:27:25;;;;;;;6.13;5.30;;;;;;;14.67;58.70;99673.59;4915397;29;20028;-49
2022/03/15 01:29:51;;;;;;;13.10;5.68;;;;;;;14.71;58.53;99676.66;4916667;29;20375;-48
2022/03/15 01:32:17;;;;;;;7.63;4.97;;;;;;;14.79;58.25;99671.16;4915376;29;20479;-50
2022/03/15 01:34:43;;;;;;;7.10;4.25;;;;;;;14.84;58.13;99671.34;4916604;29;20498;-49
2022/03/15 01:37:09;;;;;;;10.15;4.82;;;;;;;14.91;58.02;99671.34;4915271;29;20607;-49
2022/03/15 01:39:36;;;;;;;16.02;7.32;;;;;;;14.87;57.58;99672.75;4915200;29;20028;-50
2022/03/15 01:42:03;;;;;;;9.50;6.18;;;;;;;14.84;58.11;99674.00;4916487;29;20063;-49
2022/03/15 01:44:33;;;;;;;7.82;4.85;;;;;;;14.86;58.63;99663.22;4916406;29;20020;-50
2022/03/15 01:46:59;;;;;;;7.22;4.25;;;;;;;14.78;59.26;99658.94;4916357;29;20024;-49
2022/03/15 01:49:25;;;;;;;12.02;5.20;;;;;;;14.57;60.09;99660.78;4915037;29;20048;-49
2022/03/15 01:51:51;;;;;;;8.65;4.82;;;;;;;14.39;60.55;99661.34;4915552;29;20028;-49
2022/03/15 01:54:20;;;;;;;12.48;7.10;;;;;;;14.21;61.04;99665.56;4914962;29;20083;-49
2022/03/15 01:56:46;;;;;;;8.68;5.45;;;;;;;14.03;61.86;99669.59;4916191;29;20420;-48
2022/03/15 01:59:14;;;;;;;6.47;4.97;;;;;;;13.79;62.30;99665.63;4916150;29;20026;-48
2022/03/15 02:01:41;;;;;;;11.45;5.35;;;;;;;13.55;63.84;99672.22;4916153;29;20024;-48
2022/03/15 02:04:08;;;;;;;9.13;8.23;;;;;;;13.36;64.50;99669.28;4916171;29;20024;-48
2022/03/15 02:06:38;;;;;;;9.48;5.43;;;;;;;13.16;65.24;99673.59;4915958;29;20496;-49
2022/03/15 02:09:13;;;;;;;7.43;6.07;;;;;;;12.96;66.27;99674.25;4916094;29;20025;-49
2022/03/15 02:11:44;;;;;;;12.77;5.32;;;;;;;12.84;66.89;99682.84;4916127;29;20406;-49
2022/03/15 02:14:10;;;;;;;40.72;36.40;;;;;;;12.73;66.62;99686.84;4914728;29;20062;-49
2022/03/15 02:16:36;;;;;;;13.20;9.68;;;;;;;12.63;67.20;99675.81;4914373;29;20181;-49
2022/03/15 02:19:03;;;;;;;10.98;6.57;;;;;;;12.69;67.69;99685.56;4915876;29;20035;-50
2022/03/15 02:21:30;;;;;;;9.35;5.28;;;;;;;12.69;67.44;99681.13;4915851;29;20384;-49
2022/03/15 02:23:56;;;;;;;10.80;5.68;;;;;;;12.69;68.25;99675.03;4915891;29;20380;-49
2022/03/15 02:26:22;;;;;;;8.73;5.18;;;;;;;12.74;68.14;99685.84;4914574;29;20021;-49
2022/03/15 02:28:48;;;;;;;13.07;5.20;;;;;;;12.77;68.07;99680.19;4915853;29;20028;-48
2022/03/15 02:31:14;;;;;;;7.90;5.20;;;;;;;12.77;68.26;99674.91;4914458;29;20115;-49
2022/03/15 02:33:40;;;;;;;8.07;4.47;;;;;;;12.85;68.20;99677.41;4914462;29;20080;-48
2022/03/15 02:36:05;;;;;;;10.18;5.57;;;;;;;12.84;67.92;99670.53;4914407;29;20406;-49
2022/03/15 02:38:31;;;;;;;6.57;5.00;;;;;;;12.84;67.69;99667.88;4914297;29;20024;-49
2022/03/15 02:40:58;;;;;;;12.02;6.45;;;;;;;12.85;68.71;99666.88;4915645;29;20024;-49
2022/03/15 02:43:24;;;;;;;7.20;4.50;;;;;;;12.93;68.16;99669.34;4915627;29;20542;-49
2022/03/15 02:45:50;;;;;;;14.88;7.28;;;;;;;13.02;68.26;99671.84;4915576;29;20056;-49
2022/03/15 02:48:16;;;;;;;7.35;3.92;;;;;;;13.08;67.17;99664.00;4914306;29;20462;-49
2022/03/15 02:50:42;;;;;;;14.57;6.93;;;;;;;12.99;68.25;99652.78;4914226;29;20024;-48
2022/03/15 02:53:08;;;;;;;8.20;4.80;;;;;;;13.03;68.77;99644.50;4915559;29;20470;-49
2022/03/15 02:55:34;;;;;;;19.70;17.45;;;;;;;13.03;69.58;99639.25;4915507;29;20024;-49
2022/03/15 02:58:00;;;;;;;14.57;9.02;;;;;;;12.99;71.06;99636.97;4915535;29;20024;-48
2022/03/15 03:00:27;;;;;;;18.20;10.07;;;;;;;12.83;72.30;99634.63;4915392;29;20020;-48
2022/03/15 03:02:56;;;;;;;24.83;17.13;;;;;;;12.73;73.03;99645.50;4915789;29;20091;-48
2022/03/15 03:05:22;;;;;;;20.35;13.95;;;;;;;12.67;74.25;99637.56;4917938;29;20407;-48
2022/03/15 03:07:49;;;;;;;12.02;9.40;;;;;;;12.64;74.05;99630.03;4917996;29;20498;-47
2022/03/15 03:10:16;;;;;;;111.15;100.75;;;;;;;12.55;74.76;99624.88;4917903;29;20037;-48
2022/03/15 03:12:47;;;;;;;18.15;11.10;;;;;;;12.55;75.34;99618.81;4919162;29;20027;-48
2022/03/15 03:15:14;;;;;;;12.80;7.20;;;;;;;12.49;74.53;99604.59;4919146;29;20043;-47
2022/03/15 03:17:42;;;;;;;14.10;6.82;;;;;;;12.40;75.16;99605.75;4918872;29;20418;-47
2022/03/15 03:20:11;;;;;;;7.90;6.30;;;;;;;12.29;75.59;99593.88;4919231;29;20032;-48
2022/03/15 03:22:38;;;;;;;14.45;5.97;;;;;;;12.21;75.39;99606.34;4917721;29;20028;-47
2022/03/15 03:25:05;;;;;;;16.50;11.02;;;;;;;12.02;74.84;99597.28;4918931;29;20024;-47
2022/03/15 03:27:31;;;;;;;10.90;5.63;;;;;;;11.93;74.85;99591.31;4917609;29;20130;-47
2022/03/15 03:30:00;;;;;;;9.57;4.07;;;;;;;11.90;75.00;99595.13;4917581;29;20036;-47
2022/03/15 03:32:27;;;;;;;15.93;11.23;;;;;;;11.84;75.48;99595.84;4918801;29;20028;-48
2022/03/15 03:34:54;;;;;;;23.27;10.63;;;;;;;11.93;77.02;99607.94;4918773;29;20079;-48
2022/03/15 03:37:21;;;;;;;8.80;6.28;;;;;;;12.05;76.42;99615.31;4918730;29;20024;-47
2022/03/15 03:39:47;;;;;;;25.25;21.95;;;;;;;12.02;76.16;99608.63;4917343;29;20024;-47
2022/03/15 03:42:14;;;;;;;16.83;13.75;;;;;;;12.12;76.52;99608.31;4918614;29;20027;-48
2022/03/15 03:44:42;;;;;;;16.73;12.90;;;;;;;12.16;76.35;99606.94;4917320;29;20059;-48
2022/03/15 03:47:08;;;;;;;35.85;32.15;;;;;;;12.21;76.50;99601.91;4918481;29;20028;-47
2022/03/15 03:49:34;;;;;;;16.63;14.77;;;;;;;12.20;76.37;99608.19;4918531;29;20032;-48
2022/03/15 03:52:00;;;;;;;27.20;24.60;;;;;;;12.17;76.02;99612.00;4917139;29;20028;-48
2022/03/15 03:54:26;;;;;;;13.85;10.25;;;;;;;12.16;76.27;99628.78;4918449;29;20514;-49
2022/03/15 03:56:52;;;;;;;13.23;7.95;;;;;;;12.24;75.84;99648.09;4918405;29;20394;-49
2022/03/15 03:59:18;;;;;;;7.88;5.55;;;;;;;12.24;75.78;99633.13;4918245;29;20028;-48
2022/03/15 04:01:44;;;;;;;10.52;6.72;;;;;;;12.15;75.72;99635.06;4918244;29;20403;-48
2022/03/15 04:04:10;;;;;;;12.55;9.82;;;;;;;12.26;75.62;99631.13;4916980;29;20031;-49
2022/03/15 04:06:38;;;;;;;43.97;39.65;;;;;;;12.33;74.82;99639.88;4916908;29;20020;-48
2022/03/15 04:09:04;;;;;;;31.08;28.30;;;;;;;12.42;73.40;99640.59;4918118;29;20036;-47
2022/03/15 04:11:31;;;;;;;17.65;15.80;;;;;;;12.32;73.63;99633.00;4918136;29;20020;-48
2022/03/15 04:13:59;;;;;;;15.50;10.68;;;;;;;12.39;74.23;99635.69;4918133;29;20028;-49
2022/03/15 04:16:28;;;;;;;16.45;9.88;;;;;;;12.33;73.99;99639.06;4916883;29;20042;-48
2022/03/15 04:18:54;;;;;;;21.20;13.80;;;;;;;12.34;74.46;99653.88;4917901;29;20067;-49
2022/03/15 04:21:24;;;;;;;8.63;6.53;;;;;;;12.46;74.41;99648.94;4917920;29;20111;-49
2022/03/15 04:23:54;;;;;;;45.20;40.45;;;;;;;12.57;73.65;99640.50;4917928;29;20113;-47
2022/03/15 04:26:24;;;;;;;21.98;19.80;;;;;;;12.66;72.83;99620.13;4917924;29;20170;-48
2022/03/15 04:28:51;;;;;;;17.35;13.18;;;;;;;12.72;73.21;99622.81;4916507;29;20020;-49
2022/03/15 04:31:17;;;;;;;12.77;5.90;;;;;;;12.76;73.74;99624.06;4917744;29;20028;-47
2022/03/15 04:33:43;;;;;;;11.73;5.13;;;;;;;12.83;73.62;99616.19;4916449;29;20047;-48
2022/03/15 04:36:10;;;;;;;16.65;7.40;;;;;;;12.86;73.10;99610.56;4917633;29;20032;-48
2022/03/15 04:38:35;;;;;;;18.40;9.65;;;;;;;12.92;72.92;99593.97;4916219;29;20042;-49
2022/03/15 04:41:02;;;;;;;23.92;11.63;;;;;;;12.92;72.11;99588.69;4917652;29;20118;-48
2022/03/15 04:43:28;;;;;;;12.18;5.47;;;;;;;12.94;71.39;99586.69;4917599;29;20036;-48
2022/03/15 04:45:54;;;;;;;13.13;4.63;;;;;;;12.89;70.91;99593.53;4917457;29;20042;-49
2022/03/15 04:48:20;;;;;;;14.98;6.18;;;;;;;12.83;71.46;99595.13;4917479;29;20106;-49
2022/03/15 04:50:46;;;;;;;8.30;3.75;;;;;;;12.76;70.88;99602.19;4917403;29;20024;-48
2022/03/15 04:53:12;;;;;;;18.35;9.57;;;;;;;12.64;71.44;99590.53;4917391;29;20035;-48
2022/03/15 04:55:38;;;;;;;5.10;3.45;;;;;;;12.58;70.22;99592.91;4917381;29;20032;-48
2022/03/15 04:58:04;;;;;;;17.70;8.25;;;;;;;12.48;69.19;99592.44;4916040;29;20039;-48
2022/03/15 05:00:30;;;;;;;6.38;3.00;;;;;;;12.38;68.32;99581.41;4917148;29;20028;-48
2022/03/15 05:02:56;;;;;;;9.90;3.33;;;;;;;12.38;68.43;99581.41;4915924;29;20398;-49
2022/03/15 05:05:21;;;;;;;5.38;2.97;;;;;;;12.45;67.68;99584.09;4917182;29;20107;-48
2022/03/15 05:07:49;;;;;;;3.45;2.10;;;;;;;12.54;66.77;99596.13;4917100;29;20501;-48
2022/03/15 05:13:00;;;;;;;7.70;3.78;;;;;;;12.55;65.75;99572.22;4917142;29;20064;-48
2022/03/15 05:15:26;;;;;;;6.07;2.50;;;;;;;12.70;65.45;99568.72;4916750;29;20025;-49
2022/03/15 05:17:52;;;;;;;5.43;2.47;;;;;;;12.79;64.37;99563.06;4915702;29;20036;-48
2022/03/15 05:20:18;;;;;;;9.40;3.20;;;;;;;12.90;64.25;99559.09;4915555;29;20405;-48
2022/03/15 05:22:44;;;;;;;4.40;2.10;;;;;;;12.98;63.58;99535.22;4915557;29;20475;-48
2022/03/15 05:25:14;;;;;;;6.57;1.90;;;;;;;12.98;62.79;99529.97;4915513;29;20031;-48
2022/03/15 05:27:41;;;;;;;4.95;2.50;;;;;;;12.92;62.89;99519.41;4916716;29;20043;-49
2022/03/15 05:30:07;;;;;;;3.65;1.77;;;;;;;12.91;62.39;99517.75;4916698;29;20028;-49
2022/03/15 05:32:33;;;;;;;3.65;1.90;;;;;;;12.84;61.86;99528.25;4915416;29;20036;-49
2022/03/15 05:34:59;;;;;;;4.20;1.83;;;;;;;12.84;62.45;99522.16;4916605;29;20039;-49
2022/03/15 05:37:25;;;;;;;5.95;1.98;;;;;;;12.84;61.91;99525.63;4916587;29;20036;-50
2022/03/15 05:39:51;;;;;;;1.58;1.45;;;;;;;12.85;61.75;99527.25;4916509;29;20072;-50
2022/03/15 05:42:18;;;;;;;11.05;2.30;;;;;;;12.86;61.61;99536.78;4915172;29;20036;-49
2022/03/15 05:44:43;;;;;;;7.22;2.17;;;;;;;12.92;61.70;99551.81;4916443;29;20107;-50
2022/03/15 05:47:09;;;;;;;8.77;2.78;;;;;;;12.99;62.18;99562.38;4915127;29;20119;-50
2022/03/15 05:49:35;;;;;;;3.47;1.90;;;;;;;13.08;61.63;99573.56;4916361;29;20028;-50
2022/03/15 05:52:01;;;;;;;3.92;1.88;;;;;;;13.14;61.76;99568.34;4915052;29;20086;-50
2022/03/15 05:54:26;;;;;;;4.32;2.00;;;;;;;13.19;60.11;99573.03;4915018;29;20024;-50
2022/03/15 05:56:52;;;;;;;6.53;1.88;;;;;;;13.24;60.36;99577.72;4914950;29;20557;-49
2022/03/15 05:59:18;;;;;;;3.45;1.85;;;;;;;13.29;59.67;99591.97;4916165;29;20021;-51
2022/03/15 06:01:43;;;;;;;8.77;2.08;;;;;;;13.36;58.93;99594.63;4916177;29;20028;-50
2022/03/15 06:04:10;;;;;;;8.18;2.67;;;;;;;13.36;60.40;99589.34;4916101;29;20020;-50
2022/03/15 06:06:37;;;;;;;5.63;2.33;;;;;;;13.39;59.38;99612.72;4916150;29;20028;-50
2022/03/15 06:09:03;;;;;;;5.70;2.20;;;;;;;13.46;59.61;99612.72;4916084;29;20032;-49
2022/03/15 06:11:32;;;;;;;6.72;2.42;;;;;;;13.51;59.14;99616.41;4916260;29;20054;-50
2022/03/15 06:13:58;;;;;;;6.80;2.20;;;;;;;13.51;58.86;99610.34;4914705;29;20025;-50
2022/03/15 06:16:24;;;;;;;6.30;2.55;;;;;;;13.50;58.75;99595.50;4915716;29;20040;-49
2022/03/15 06:18:50;;;;;;;9.55;5.65;;;;;;;13.66;58.55;99600.47;4915891;29;20051;-49
2022/03/15 06:21:17;;;;;;;16.17;4.50;;;;;;;13.83;59.02;99594.81;4914527;29;20135;-49
2022/03/15 06:23:43;;;;;;;5.78;3.25;;;;;;;13.99;58.40;99597.91;4915813;29;20036;-50
2022/03/15 06:26:09;;;;;;;9.95;2.80;;;;;;;14.10;58.55;99580.66;4914550;29;20024;-49
2022/03/15 06:28:36;;;;;;;9.73;3.80;;;;;;;14.26;57.86;99592.66;4914526;29;20066;-49
2022/03/15 06:31:02;;;;;;;6.60;3.88;;;;;;;14.25;56.57;99588.41;4898687;29;20024;-50
2022/03/15 06:33:29;;;;;;;8.77;2.85;;;;;;;14.16;57.15;99586.97;4914452;29;20032;-50
2022/03/15 06:35:55;;;;;;;7.55;3.30;;;;;;;14.18;57.78;99595.50;4914440;29;20020;-50
2022/03/15 06:38:20;;;;;;;27.98;20.40;;;;;;;14.26;57.91;99597.94;4915189;29;20039;-50
2022/03/15 06:40:47;;;;;;;8.15;6.68;;;;;;;14.23;57.39;99574.59;4914345;29;20388;-49
2022/03/15 06:43:13;;;;;;;12.13;5.22;;;;;;;14.27;56.95;99570.53;4915664;29;20048;-49
2022/03/15 06:45:41;;;;;;;7.60;4.22;;;;;;;14.45;55.48;99562.00;4915550;29;20028;-50
2022/03/15 06:48:08;;;;;;;11.18;8.25;;;;;;;14.44;54.86;99560.38;4915572;29;20479;-50
2022/03/15 06:50:34;;;;;;;12.90;6.40;;;;;;;14.43;55.17;99569.31;4915570;29;20039;-50
2022/03/15 06:53:00;;;;;;;13.40;6.63;;;;;;;14.57;55.33;99576.25;4915603;29;20541;-50
2022/03/15 06:55:26;;;;;;;15.93;4.85;;;;;;;14.61;54.73;99573.19;4915518;29;20470;-49
2022/03/15 06:57:52;;;;;;;8.70;3.20;;;;;;;14.68;54.61;99555.50;4915546;29;20490;-49
2022/03/15 07:00:18;;;;;;;10.90;2.85;;;;;;;14.76;53.78;99550.00;4914152;29;20020;-48
2022/03/15 07:02:44;;;;;;;10.45;3.55;;;;;;;14.75;54.12;99557.13;4914208;29;20035;-49
2022/03/15 07:05:10;;;;;;;8.48;3.45;;;;;;;14.80;54.18;99553.06;4914139;29;20027;-50
2022/03/15 07:07:36;;;;;;;12.20;3.90;;;;;;;14.84;54.03;99557.72;4915497;29;20036;-50
2022/03/15 07:10:05;;;;;;;13.35;5.93;;;;;;;14.96;54.19;99542.84;4914078;29;20032;-48
2022/03/15 07:12:32;;;;;;;11.00;4.80;;;;;;;15.09;53.16;99536.72;4915417;29;20028;-49
2022/03/15 07:15:00;;;;;;;7.25;2.08;;;;;;;15.15;52.11;99548.25;4915362;29;20024;-49
2022/03/15 07:17:27;;;;;;;9.50;3.92;;;;;;;15.11;52.66;99533.84;4913938;29;20052;-50
2022/03/15 07:19:53;;;;;;;10.35;4.38;;;;;;;15.12;52.72;99530.19;4913954;29;20541;-49
2022/03/15 07:22:19;;;;;;;8.55;3.90;;;;;;;15.09;52.32;99528.78;4914050;29;20060;-50
2022/03/15 07:24:44;;;;;;;5.57;3.72;;;;;;;15.02;52.12;99541.19;4915301;29;20025;-50
2022/03/15 07:27:10;;;;;;;7.70;3.90;;;;;;;14.72;52.53;99546.94;4915275;29;20079;-49
2022/03/15 07:29:36;;;;;;;13.10;4.00;;;;;;;14.51;53.33;99539.25;4913976;29;20063;-49
2022/03/15 07:32:02;;;;;;;26.45;6.53;;;;;;;14.53;53.54;99543.31;4913897;29;20084;-49
2022/03/15 07:34:27;;;;;;;5.60;2.38;;;;;;;14.68;53.25;99544.94;4913945;29;20051;-49
2022/03/15 07:36:53;;;;;;;15.07;3.80;;;;;;;14.77;53.66;99549.00;4915129;29;20031;-49
2022/03/15 07:39:19;;;;;;;10.57;3.47;;;;;;;14.76;53.28;99552.66;4915367;29;20503;-49
2022/03/15 07:41:46;;;;;;;6.15;3.50;;;;;;;14.76;53.09;99565.84;4915173;29;20048;-49
2022/03/15 07:44:12;;;;;;;7.72;3.15;;;;;;;14.76;53.35;99560.56;4913851;29;20403;-49
2022/03/15 07:46:40;;;;;;;6.43;2.22;;;;;;;14.68;52.89;99576.63;4913803;29;20028;-49
2022/03/15 07:49:06;;;;;;;6.32;3.08;;;;;;;14.55;53.43;99583.53;4913762;29;20044;-49
2022/03/15 07:51:32;;;;;;;6.47;3.60;;;;;;;14.43;53.80;99571.13;4917779;29;20119;-48
2022/03/15 07:53:58;;;;;;;5.50;2.83;;;;;;;14.46;53.93;99558.31;4918466;29;20021;-49
2022/03/15 07:56:24;;;;;;;6.78;2.40;;;;;;;14.57;53.87;99560.41;4918400;29;20490;-50
2022/03/15 07:58:49;;;;;;;10.45;3.35;;;;;;;14.69;53.78;99571.16;4917046;29;20039;-49
2022/03/15 08:01:16;;;;;;;6.50;2.42;;;;;;;14.85;53.13;99571.72;4918345;29;20026;-50
2022/03/15 08:03:42;;;;;;;8.07;3.00;;;;;;;14.91;53.06;99561.16;4918294;29;20115;-49
2022/03/15 08:06:07;;;;;;;13.60;7.07;;;;;;;15.02;52.96;99561.53;4918234;29;20024;-50
2022/03/15 08:08:33;;;;;;;5.38;2.28;;;;;;;15.23;51.90;99547.22;4918233;29;20112;-49
2022/03/15 08:11:00;;;;;;;11.63;4.38;;;;;;;15.35;51.68;99548.19;4916829;29;20506;-49
2022/03/15 08:13:26;;;;;;;5.65;2.30;;;;;;;15.46;51.82;99557.31;4918159;29;20039;-49
2022/03/15 08:15:51;;;;;;;4.53;2.30;;;;;;;15.57;50.99;99562.75;4917804;29;20119;-49
2022/03/15 08:18:17;;;;;;;5.28;1.85;;;;;;;15.53;50.27;99568.66;4916782;29;20033;-49
2022/03/15 08:20:43;;;;;;;13.63;3.22;;;;;;;15.37;50.56;99575.25;4917958;29;20082;-49
2022/03/15 08:23:12;;;;;;;11.00;3.17;;;;;;;15.28;51.00;99587.09;4916609;29;20031;-49
2022/03/15 08:25:38;;;;;;;8.88;2.05;;;;;;;15.26;50.62;99583.84;4917918;29;20426;-49
2022/03/15 08:28:05;;;;;;;7.70;2.25;;;;;;;15.32;49.97;99583.81;4917865;29;20062;-50
2022/03/15 08:30:31;;;;;;;12.55;3.40;;;;;;;15.31;50.36;99582.19;4917835;29;20035;-49
2022/03/15 08:32:57;;;;;;;14.77;5.60;;;;;;;15.35;50.04;99572.00;4917742;29;20024;-49
2022/03/15 08:35:23;;;;;;;7.00;2.40;;;;;;;15.49;49.91;99568.31;4917704;29;20036;-48
2022/03/15 08:37:53;;;;;;;12.73;5.22;;;;;;;15.52;50.13;99572.34;4917698;29;20051;-49
2022/03/15 08:40:22;;;;;;;5.82;2.30;;;;;;;15.74;49.64;99570.25;4917643;29;20032;-50
2022/03/15 08:42:48;;;;;;;18.90;13.00;;;;;;;15.85;49.13;99576.69;4917639;29;20059;-49
2022/03/15 08:45:15;;;;;;;8.75;2.92;;;;;;;15.84;49.28;99564.47;4916283;29;20049;-49
2022/03/15 08:47:41;;;;;;;8.75;3.22;;;;;;;15.86;49.03;99559.78;4916194;29;20032;-49
2022/03/15 08:50:09;;;;;;;7.35;3.50;;;;;;;15.85;48.77;99560.78;4916126;29;20036;-49
2022/03/15 08:52:35;;;;;;;7.18;3.00;;;;;;;15.67;50.04;99572.88;4916157;29;20028;-47
2022/03/15 08:55:02;;;;;;;5.10;2.00;;;;;;;15.47;49.58;99570.31;4917420;29;20389;-49
2022/03/15 08:57:29;;;;;;;7.70;1.80;;;;;;;15.30;49.84;99579.75;4917361;29;20024;-49
2022/03/15 08:59:54;;;;;;;16.02;3.47;;;;;;;15.28;50.55;99577.31;4917223;29;20032;-49
2022/03/15 09:02:20;;;;;;;4.35;2.53;;;;;;;15.37;51.66;99580.53;4916922;29;20517;-49
2022/03/15 09:04:47;;;;;;;6.93;3.30;;;;;;;15.39;50.50;99565.25;4917166;29;20444;-49
2022/03/15 09:07:13;;;;;;;8.10;4.28;;;;;;;15.31;51.30;99582.19;4915848;29;20131;-49
2022/03/15 09:09:38;;;;;;;6.72;1.98;;;;;;;15.26;51.22;99589.13;4915843;29;20052;-49
2022/03/15 09:12:05;;;;;;;6.15;3.38;;;;;;;15.20;51.54;99589.97;4917045;29;20119;-49
2022/03/15 09:14:32;;;;;;;7.43;2.30;;;;;;;15.27;51.67;99583.66;4917031;29;20506;-49
2022/03/15 09:16:58;;;;;;;6.50;2.92;;;;;;;15.45;53.13;99567.06;4915589;29;20040;-49
2022/03/15 09:19:24;;;;;;;23.67;21.25;;;;;;;15.62;51.43;99567.41;4916910;29;20178;-49
2022/03/15 09:21:51;;;;;;;13.05;11.18;;;;;;;15.71;49.66;99582.00;4916760;29;20084;-48
2022/03/15 09:24:17;;;;;;;21.13;10.10;;;;;;;15.69;50.01;99596.47;4916813;29;20052;-49
2022/03/15 09:26:43;;;;;;;19.48;9.00;;;;;;;15.77;49.77;99577.75;4916773;29;20119;-50
2022/03/15 09:29:10;;;;;;;12.88;5.10;;;;;;;15.86;49.77;99567.72;4916756;29;20028;-49
2022/03/15 09:31:37;;;;;;;25.13;7.00;;;;;;;15.94;49.95;99562.97;4916955;29;20036;-49
2022/03/15 09:34:03;;;;;;;12.18;4.00;;;;;;;16.04;49.39;99565.16;4915386;29;20139;-49
2022/03/15 09:36:29;;;;;;;19.90;5.40;;;;;;;16.13;49.56;99550.63;4916639;29;20534;-49
2022/03/15 09:38:55;;;;;;;6.13;1.95;;;;;;;16.37;47.77;99545.56;4916718;29;20039;-49
2022/03/15 09:41:25;;;;;;;4.00;1.85;;;;;;;16.35;46.57;99539.66;4915266;29;20072;-49
2022/03/15 09:43:53;;;;;;;3.35;1.88;;;;;;;16.09;46.73;99552.06;4916515;29;20027;-49
2022/03/15 09:46:21;;;;;;;7.85;2.28;;;;;;;15.74;47.07;99551.72;4915175;29;20148;-49
2022/03/15 09:48:52;;;;;;;8.70;2.80;;;;;;;15.58;48.08;99545.03;4916411;29;20059;-49
2022/03/15 09:51:18;;;;;;;8.75;2.03;;;;;;;15.68;47.70;99532.16;4916383;29;20025;-49
2022/03/15 09:53:46;;;;;;;10.70;3.65;;;;;;;15.61;47.57;99549.09;4916295;29;20068;-48
2022/03/15 09:56:16;;;;;;;7.47;2.38;;;;;;;15.49;47.50;99531.25;4916273;29;20430;-50
2022/03/15 09:58:42;;;;;;;3.97;1.90;;;;;;;15.44;47.53;99523.13;4916163;29;20376;-50
2022/03/15 10:01:14;;;;;;;10.55;3.70;;;;;;;15.40;48.54;99524.59;4914864;29;20032;-49
2022/03/15 10:03:40;;;;;;;4.57;1.90;;;;;;;15.45;48.04;99539.81;4916214;29;20120;-49
2022/03/15 10:06:06;;;;;;;5.45;1.98;;;;;;;15.49;47.72;99543.66;4916111;29;20060;-50
2022/03/15 10:08:34;;;;;;;5.82;2.13;;;;;;;15.53;47.71;99545.69;4914855;29;20380;-49
2022/03/15 10:11:01;;;;;;;4.80;2.60;;;;;;;15.50;47.69;99550.59;4916076;29;20083;-49
2022/03/15 10:13:27;;;;;;;6.95;2.90;;;;;;;15.49;48.12;99535.72;4915387;29;20020;-50
2022/03/15 10:15:59;;;;;;;6.35;2.58;;;;;;;15.70;48.45;99535.41;4915760;29;20123;-49
2022/03/15 10:18:25;;;;;;;6.72;2.33;;;;;;;15.92;47.48;99554.44;4915945;29;20052;-49
2022/03/15 10:20:51;;;;;;;3.85;1.80;;;;;;;16.05;46.75;99548.22;4915883;29;20392;-49
2022/03/15 10:23:19;;;;;;;6.03;2.47;;;;;;;16.01;47.02;99539.09;4914549;29;20099;-49
2022/03/15 10:25:50;;;;;;;3.33;1.98;;;;;;;16.11;46.30;99528.84;4915805;29;20024;-50
2022/03/15 10:28:17;;;;;;;6.20;2.40;;;;;;;16.06;46.69;99522.59;4915838;29;20048;-50
2022/03/15 10:30:45;;;;;;;8.30;2.00;;;;;;;15.95;46.28;99529.38;4914477;29;20063;-49
2022/03/15 10:33:11;;;;;;;5.82;2.50;;;;;;;15.84;46.76;99516.84;4915771;29;20394;-49
2022/03/15 10:35:40;;;;;;;5.20;2.22;;;;;;;15.78;47.13;99527.25;4915681;29;20036;-49
2022/03/15 10:38:07;;;;;;;5.32;1.95;;;;;;;15.90;47.15;99519.44;4915718;29;20052;-49
2022/03/15 10:40:34;;;;;;;3.45;1.40;;;;;;;16.09;46.16;99520.31;4915580;29;20095;-49
2022/03/15 10:43:24;;;;;;;4.25;2.08;;;;;;;16.22;46.29;99510.63;4914392;29;20039;-50
2022/03/15 10:45:57;;;;;;;5.63;2.30;;;;;;;16.35;45.38;99507.88;4909353;29;20072;-49
2022/03/15 10:48:31;;;;;;;5.32;2.10;;;;;;;16.56;45.32;99512.78;4914391;29;20036;-50
2022/03/15 10:51:00;;;;;;;3.53;1.88;;;;;;;16.86;45.27;99524.53;4915688;29;20398;-49
2022/03/15 10:53:39;;;;;;;5.30;2.40;;;;;;;17.17;44.92;99505.81;4915592;29;20028;-50
2022/03/15 10:56:12;;;;;;;6.72;2.67;;;;;;;17.53;43.48;99503.31;4915614;29;20025;-49
2022/03/15 10:59:04;;;;;;;5.38;2.20;;;;;;;17.86;42.79;99486.91;4914156;29;20414;-49
2022/03/15 11:01:37;;;;;;;5.80;2.42;;;;;;;17.91;42.81;99483.59;4915507;29;20034;-49
2022/03/15 11:04:08;;;;;;;6.57;1.88;;;;;;;17.86;42.11;99470.97;4915543;29;20035;-49
2022/03/15 11:06:40;;;;;;;8.85;2.03;;;;;;;17.67;41.90;99469.44;4915478;29;20060;-50
2022/03/15 11:09:25;;;;;;;8.15;2.58;;;;;;;17.53;42.96;99474.13;4914173;29;20032;-49
2022/03/15 11:12:03;;;;;;;4.57;2.28;;;;;;;17.76;42.79;99478.66;4914229;29;20028;-50
2022/03/15 11:15:07;;;;;;;4.63;2.00;;;;;;;18.01;41.79;99475.88;4915477;29;20083;-51
2022/03/15 11:17:27;;;;;;;6.90;2.55;;;;;;;18.13;42.12;99482.00;4913919;29;20511;-50
2022/03/15 11:19:58;;;;;;;6.22;2.28;;;;;;;18.36;41.57;99493.66;4929754;29;20028;-50
2022/03/15 11:22:34;;;;;;;7.65;2.50;;;;;;;18.49;41.63;99469.53;4915344;29;20035;-50
2022/03/15 11:25:06;;;;;;;2.83;2.05;;;;;;;18.69;40.10;99468.31;4917412;29;20160;-50
2022/03/15 11:27:40;;;;;;;7.32;2.42;;;;;;;18.42;40.65;99455.53;4918943;29;20566;-50
2022/03/15 11:30:09;;;;;;;10.45;2.53;;;;;;;18.56;41.29;99472.84;4918971;29;20047;-50
2022/03/15 11:32:35;;;;;;;7.70;2.17;;;;;;;18.92;39.81;99460.31;4918859;29;20119;-50